createdAt,value
2018-05-26T00:00:30.518Z,99.90
2018-05-26T00:03:00.832Z,99.90
2018-05-26T00:05:31.270Z,99.90
2018-05-26T00:08:00.399Z,99.90
2018-05-26T00:10:30.482Z,99.90
2018-05-26T00:12:59.564Z,99.90
2018-05-26T00:15:29.492Z,99.90
2018-05-26T00:17:58.611Z,99.90
2018-05-26T00:20:28.873Z,99.90
2018-05-26T00:23:03.908Z,99.90
2018-05-26T00:25:33.473Z,99.90
2018-05-26T00:28:03.377Z,99.90
2018-05-26T00:30:32.682Z,99.90
2018-05-26T00:33:02.328Z,99.90
2018-05-26T00:35:31.573Z,99.90
2018-05-26T00:38:00.787Z,99.90
2018-05-26T00:40:30.552Z,99.90
2018-05-26T00:45:40.984Z,99.90
2018-05-26T00:48:10.231Z,99.90
2018-05-26T00:50:41.112Z,99.90
2018-05-26T00:53:10.536Z,99.90
2018-05-26T00:55:40.546Z,99.90
2018-05-26T00:58:10.112Z,99.90
2018-05-26T01:00:40.314Z,99.90
2018-05-26T01:03:16.658Z,99.90
2018-05-26T01:05:46.719Z,99.90
2018-05-26T01:08:23.131Z,99.90
2018-05-26T01:11:02.033Z,99.90
2018-05-26T01:13:36.826Z,99.90
2018-05-26T01:16:06.920Z,99.90
2018-05-26T01:21:09.397Z,99.90
2018-05-26T01:23:39.360Z,99.90
2018-05-26T01:26:08.712Z,99.90
2018-05-26T01:28:39.772Z,99.90
2018-05-26T01:31:11.082Z,99.90
2018-05-26T01:33:44.625Z,99.90
2018-05-26T01:36:15.173Z,99.90
2018-05-26T01:38:53.246Z,99.90
2018-05-26T01:41:28.285Z,99.90
2018-05-26T01:43:58.846Z,99.90
2018-05-26T01:46:28.541Z,99.90
2018-05-26T01:51:36.475Z,99.90
2018-05-26T01:54:07.196Z,99.90
2018-05-26T01:56:37.363Z,99.90
2018-05-26T01:59:08.452Z,99.90
2018-05-26T02:01:40.167Z,99.90
2018-05-26T02:04:09.568Z,99.90
2018-05-26T02:06:40.397Z,99.90
2018-05-26T02:09:10.309Z,99.90
2018-05-26T02:11:39.981Z,99.90
2018-05-26T02:14:11.132Z,99.90
2018-05-26T02:16:40.399Z,99.90
2018-05-26T02:19:10.629Z,99.90
2018-05-26T02:21:42.234Z,99.90
2018-05-26T02:24:12.804Z,99.90
2018-05-26T02:26:42.217Z,99.90
2018-05-26T02:29:12.355Z,99.90
2018-05-26T02:31:45.133Z,99.90
2018-05-26T02:34:14.578Z,99.90
2018-05-26T02:36:45.501Z,99.90
2018-05-26T02:39:14.836Z,99.90
2018-05-26T02:41:44.923Z,99.90
2018-05-26T02:44:18.120Z,99.90
2018-05-26T02:47:18.358Z,99.90
2018-05-26T02:49:48.445Z,99.90
2018-05-26T02:52:17.733Z,99.90
2018-05-26T02:54:46.918Z,99.90
2018-05-26T02:59:50.680Z,99.90
2018-05-26T03:05:07.602Z,99.90
2018-05-26T03:07:43.007Z,99.90
2018-05-26T03:10:19.924Z,99.90
2018-05-26T03:12:54.742Z,99.90
2018-05-26T03:15:24.846Z,99.90
2018-05-26T03:18:08.907Z,99.90
2018-05-26T03:20:48.238Z,99.90
2018-05-26T03:25:56.940Z,99.90
2018-05-26T03:28:27.807Z,99.90
2018-05-26T03:30:58.645Z,99.90
2018-05-26T03:33:28.087Z,99.90
2018-05-26T03:35:58.566Z,99.90
2018-05-26T03:38:29.407Z,99.90
2018-05-26T03:40:59.711Z,99.90
2018-05-26T03:43:30.904Z,99.90
2018-05-26T03:46:01.448Z,99.90
2018-05-26T03:48:31.877Z,99.90
2018-05-26T03:51:06.095Z,99.90
2018-05-26T03:53:36.953Z,99.90
2018-05-26T03:56:18.311Z,99.90
2018-05-26T03:59:00.611Z,99.90
2018-05-26T04:01:30.862Z,99.90
2018-05-26T04:04:00.466Z,99.90
2018-05-26T04:06:30.481Z,99.90
2018-05-26T04:09:01.758Z,99.90
2018-05-26T04:14:34.662Z,99.90
2018-05-26T04:17:06.043Z,99.90
2018-05-26T04:19:38.625Z,99.90
2018-05-26T04:22:08.401Z,99.90
2018-05-26T04:24:37.875Z,99.90
2018-05-26T04:27:07.359Z,99.90
2018-05-26T04:29:37.442Z,99.90
2018-05-26T04:32:06.860Z,99.90
2018-05-26T04:34:36.241Z,99.90
2018-05-26T04:37:06.405Z,99.90
2018-05-26T04:39:37.848Z,99.90
2018-05-26T04:42:08.156Z,99.90
2018-05-26T04:44:37.781Z,99.90
2018-05-26T04:47:07.257Z,99.90
2018-05-26T04:49:39.387Z,99.90
2018-05-26T04:52:08.732Z,99.90
2018-05-26T04:54:38.022Z,99.90
2018-05-26T04:57:07.207Z,99.90
2018-05-26T04:59:36.820Z,99.90
2018-05-26T05:02:06.202Z,99.90
2018-05-26T05:04:37.591Z,99.90
2018-05-26T05:07:06.913Z,99.90
2018-05-26T05:09:36.997Z,99.90
2018-05-26T05:12:10.077Z,99.90
2018-05-26T05:14:40.510Z,99.90
2018-05-26T05:17:10.186Z,99.90
2018-05-26T05:19:39.463Z,99.90
2018-05-26T05:22:08.691Z,99.90
2018-05-26T05:24:38.487Z,99.90
2018-05-26T05:27:09.334Z,99.90
2018-05-26T05:29:42.703Z,99.90
2018-05-26T05:34:45.768Z,99.90
2018-05-26T05:37:15.440Z,99.90
2018-05-26T05:39:45.645Z,99.90
2018-05-26T05:42:16.578Z,99.90
2018-05-26T05:44:46.824Z,99.90
2018-05-26T05:47:16.618Z,99.90
2018-05-26T05:49:53.556Z,99.90
2018-05-26T05:52:27.941Z,99.90
2018-05-26T05:54:58.225Z,99.90
2018-05-26T05:57:29.019Z,99.90
2018-05-26T06:00:00.551Z,99.90
2018-05-26T06:02:29.899Z,99.90
2018-05-26T06:04:59.101Z,99.90
2018-05-26T06:07:28.271Z,99.90
2018-05-26T06:09:58.647Z,99.90
2018-05-26T06:12:27.881Z,99.90
2018-05-26T06:15:00.725Z,99.90
2018-05-26T06:17:29.917Z,99.90
2018-05-26T06:19:59.130Z,99.90
2018-05-26T06:22:28.510Z,99.90
2018-05-26T06:24:58.642Z,99.90
2018-05-26T06:27:28.594Z,99.90
2018-05-26T06:29:59.506Z,99.90
2018-05-26T06:32:28.862Z,99.90
2018-05-26T06:34:58.035Z,99.90
2018-05-26T06:37:27.238Z,99.90
2018-05-26T06:39:56.425Z,99.90
2018-05-26T06:42:25.708Z,99.90
2018-05-26T06:44:55.358Z,99.90
2018-05-26T06:47:24.536Z,99.90
2018-05-26T06:49:53.759Z,99.90
2018-05-26T06:52:22.997Z,99.90
2018-05-26T06:54:52.179Z,99.90
2018-05-26T06:57:22.177Z,99.90
2018-05-26T06:59:51.671Z,99.90
2018-05-26T07:02:20.921Z,99.90
2018-05-26T07:04:52.366Z,99.90
2018-05-26T07:07:21.561Z,99.90
2018-05-26T07:09:50.862Z,99.90
2018-05-26T07:12:20.174Z,99.90
2018-05-26T07:14:49.541Z,99.90
2018-05-26T07:17:20.293Z,99.90
2018-05-26T07:19:49.901Z,99.90
2018-05-26T07:22:19.107Z,99.90
2018-05-26T07:24:48.373Z,99.90
2018-05-26T07:27:17.780Z,99.90
2018-05-26T07:29:51.969Z,99.90
2018-05-26T07:32:21.434Z,99.90
2018-05-26T07:34:50.858Z,99.90
2018-05-26T07:37:20.866Z,99.90
2018-05-26T07:39:50.110Z,99.90
2018-05-26T07:42:20.470Z,99.90
2018-05-26T07:44:49.716Z,99.90
2018-05-26T07:47:19.068Z,99.90
2018-05-26T07:49:48.487Z,99.90
2018-05-26T07:52:17.808Z,99.90
2018-05-26T07:54:47.055Z,99.90
2018-05-26T07:57:16.407Z,99.90
2018-05-26T07:59:45.686Z,99.90
2018-05-26T08:02:14.840Z,99.90
2018-05-26T08:04:44.827Z,99.90
2018-05-26T08:07:14.891Z,99.90
2018-05-26T08:09:44.145Z,99.90
2018-05-26T08:12:13.438Z,99.90
2018-05-26T08:14:42.809Z,99.90
2018-05-26T08:17:12.438Z,99.90
2018-05-26T08:19:42.721Z,99.90
2018-05-26T08:22:13.161Z,99.90
2018-05-26T08:24:42.378Z,99.90
2018-05-26T08:27:11.639Z,99.90
2018-05-26T08:29:41.194Z,99.90
2018-05-26T08:32:10.475Z,99.90
2018-05-26T08:34:39.656Z,99.90
2018-05-26T08:37:08.890Z,99.90
2018-05-26T08:39:38.383Z,99.90
2018-05-26T08:42:07.560Z,99.90
2018-05-26T08:44:36.931Z,99.90
2018-05-26T08:47:06.206Z,99.90
2018-05-26T08:49:35.658Z,99.90
2018-05-26T08:52:05.025Z,99.90
2018-05-26T08:54:34.222Z,99.90
2018-05-26T08:57:04.248Z,99.90
2018-05-26T08:59:34.280Z,99.90
2018-05-26T09:02:03.580Z,99.90
2018-05-26T09:04:32.819Z,99.90
2018-05-26T09:07:02.158Z,99.90
2018-05-26T09:09:31.361Z,99.90
2018-05-26T09:12:00.548Z,99.90
2018-05-26T09:14:30.543Z,99.90
2018-05-26T09:17:00.589Z,99.90
2018-05-26T09:19:29.864Z,99.90
2018-05-26T09:21:59.905Z,99.90
2018-05-26T09:24:29.511Z,99.90
2018-05-26T09:26:58.664Z,99.90
2018-05-26T09:29:27.847Z,99.90
2018-05-26T09:31:57.048Z,99.90
2018-05-26T09:34:26.248Z,99.90
2018-05-26T09:36:55.556Z,99.90
2018-05-26T09:39:24.755Z,99.90
2018-05-26T09:41:53.983Z,99.90
2018-05-26T09:44:23.299Z,99.90
2018-05-26T09:46:52.618Z,99.90
2018-05-26T09:49:21.933Z,99.90
2018-05-26T09:51:51.138Z,99.90
2018-05-26T09:54:20.402Z,99.90
2018-05-26T09:56:49.851Z,99.90
2018-05-26T09:59:19.773Z,99.90
2018-05-26T10:01:49.734Z,99.90
2018-05-26T10:04:19.120Z,99.90
2018-05-26T10:06:48.384Z,99.90
2018-05-26T10:09:17.660Z,99.90
2018-05-26T10:11:46.930Z,99.90
2018-05-26T10:14:16.242Z,99.90
2018-05-26T10:16:45.469Z,99.90
2018-05-26T10:19:14.590Z,99.90
2018-05-26T10:21:44.600Z,99.90
2018-05-26T10:24:14.661Z,99.90
2018-05-26T10:26:44.110Z,99.90
2018-05-26T10:29:13.354Z,99.90
2018-05-26T10:31:42.543Z,99.90
2018-05-26T10:34:11.738Z,99.90
2018-05-26T10:36:40.957Z,99.90
2018-05-26T10:39:10.119Z,99.90
2018-05-26T10:41:40.151Z,99.90
2018-05-26T10:44:09.374Z,99.90
2018-05-26T10:46:38.582Z,99.90
2018-05-26T10:49:07.927Z,99.90
2018-05-26T10:51:37.021Z,99.90
2018-05-26T10:54:07.012Z,99.90
2018-05-26T10:56:36.218Z,99.90
2018-05-26T10:59:05.414Z,99.90
2018-05-26T11:01:35.519Z,99.90
2018-05-26T11:04:05.851Z,99.90
2018-05-26T11:06:47.482Z,99.90
2018-05-26T11:09:16.776Z,99.90
2018-05-26T11:11:46.224Z,99.90
2018-05-26T11:14:15.578Z,99.90
2018-05-26T11:16:44.869Z,99.90
2018-05-26T11:19:14.532Z,99.90
2018-05-26T11:21:43.733Z,99.90
2018-05-26T11:24:13.065Z,99.90
2018-05-26T11:26:44.857Z,99.90
2018-05-26T11:29:14.617Z,99.90
2018-05-26T11:31:44.661Z,99.90
2018-05-26T11:34:14.036Z,99.90
2018-05-26T11:36:43.703Z,99.90
2018-05-26T11:39:12.860Z,99.90
2018-05-26T11:41:42.042Z,99.90
2018-05-26T11:44:13.032Z,99.90
2018-05-26T11:46:42.228Z,99.90
2018-05-26T11:49:11.924Z,99.90
2018-05-26T11:51:41.330Z,99.90
2018-05-26T11:54:12.504Z,99.90
2018-05-26T11:56:41.651Z,99.90
2018-05-26T11:59:10.897Z,99.90
2018-05-26T12:01:40.953Z,99.90
2018-05-26T12:04:10.311Z,99.90
2018-05-26T12:06:43.252Z,99.90
2018-05-26T12:09:12.605Z,99.90
2018-05-26T12:11:57.787Z,99.90
2018-05-26T12:14:29.004Z,99.90
2018-05-26T12:16:58.335Z,99.90
2018-05-26T12:19:29.448Z,99.90
2018-05-26T12:21:58.687Z,99.90
2018-05-26T12:24:29.040Z,99.90
2018-05-26T12:26:59.491Z,99.90
2018-05-26T12:29:29.678Z,99.90
2018-05-26T12:32:00.141Z,99.90
2018-05-26T12:34:31.879Z,99.90
2018-05-26T12:37:29.793Z,99.90
2018-05-26T12:40:00.946Z,99.90
2018-05-26T12:42:32.705Z,99.90
2018-05-26T12:45:04.151Z,99.90
2018-05-26T12:47:41.569Z,99.90
2018-05-26T12:50:11.762Z,99.90
2018-05-26T12:52:42.125Z,99.90
2018-05-26T12:55:12.225Z,99.90
2018-05-26T12:57:42.376Z,99.90
2018-05-26T13:00:12.053Z,99.90
2018-05-26T13:02:41.418Z,99.90
2018-05-26T13:05:11.263Z,99.90
2018-05-26T13:21:36.733Z,99.90
2018-05-26T13:24:09.878Z,99.90
2018-05-26T13:26:39.853Z,99.90
2018-05-26T13:29:10.380Z,99.90
2018-05-26T13:31:41.454Z,99.90
2018-05-26T13:34:12.083Z,99.90
2018-05-26T13:36:41.829Z,99.90
2018-05-26T13:39:11.028Z,99.90
2018-05-26T13:41:41.459Z,99.90
2018-05-26T13:44:14.007Z,99.90
2018-05-26T13:46:53.451Z,99.90
2018-05-26T13:57:28.569Z,99.90
2018-05-26T14:02:55.576Z,99.90
2018-05-26T14:05:29.821Z,99.90
2018-05-26T14:08:12.124Z,99.90
2018-05-26T14:17:43.169Z,99.90
2018-05-26T14:22:51.835Z,99.90
2018-05-26T14:28:14.183Z,99.90
2018-05-26T14:33:21.052Z,99.90
2018-05-26T14:35:53.698Z,99.90
2018-05-26T14:39:02.275Z,99.90
2018-05-26T14:41:44.327Z,99.90
2018-05-26T14:44:48.849Z,99.90
2018-05-26T14:51:14.662Z,99.50
2018-05-26T15:30:17.838Z,79.00
2018-05-26T15:32:57.563Z,78.60
2018-05-26T15:58:54.525Z,77.50
2018-05-26T16:01:35.477Z,79.10
2018-05-26T16:04:17.187Z,80.40
2018-05-26T16:06:50.876Z,80.40
2018-05-26T16:09:24.248Z,82.70
2018-05-26T16:12:13.140Z,80.90
2018-05-26T16:20:37.254Z,73.10
2018-05-26T16:23:21.942Z,74.40
2018-05-26T16:36:35.653Z,62.50
2018-05-26T16:46:22.907Z,72.10
2018-05-26T16:48:54.977Z,79.30
2018-05-26T16:51:26.206Z,75.80
2018-05-26T16:53:57.249Z,65.00
2018-05-26T16:56:28.648Z,64.90
2018-05-26T16:59:05.102Z,60.90
2018-05-26T17:01:36.508Z,58.10
2018-05-26T17:04:07.513Z,61.70
2018-05-26T17:09:37.142Z,55.50
2018-05-26T18:00:46.335Z,63.20
2018-05-26T18:03:24.598Z,58.80
2018-05-26T18:05:57.660Z,58.40
2018-05-26T18:14:13.443Z,64.50
2018-05-26T18:16:45.498Z,65.10
2018-05-26T18:19:17.105Z,65.10
2018-05-26T18:21:49.106Z,62.20
2018-05-26T18:24:19.842Z,62.70
2018-05-26T18:37:49.079Z,62.10
2018-05-26T18:43:28.972Z,53.90
2018-05-26T18:46:00.994Z,54.40
2018-05-26T18:51:17.982Z,56.60
2018-05-26T18:53:48.393Z,57.10
2018-05-26T18:56:22.542Z,56.20
2018-05-26T19:01:37.043Z,62.30
2018-05-26T19:04:14.704Z,62.50
2018-05-26T19:06:44.743Z,61.90
2018-05-26T19:09:14.469Z,63.20
2018-05-26T19:11:46.989Z,58.20
2018-05-26T19:14:19.272Z,59.30
2018-05-26T19:16:56.684Z,60.90
2018-05-26T19:19:28.400Z,62.20
2018-05-26T19:22:00.479Z,65.40
2018-05-26T19:28:08.520Z,61.70
2018-05-26T19:30:41.731Z,59.10
2018-05-26T19:33:30.975Z,59.40
2018-05-26T19:41:47.390Z,55.90
2018-05-26T19:44:29.040Z,57.30
2018-05-26T19:47:03.154Z,57.70
2018-05-26T19:49:42.559Z,56.50
2018-05-26T19:52:13.337Z,60.00
2018-05-26T19:54:48.030Z,62.60
2018-05-26T19:57:17.748Z,60.80
2018-05-26T20:00:00.302Z,59.70
2018-05-26T20:02:43.332Z,62.20
2018-05-26T20:05:13.275Z,64.30
2018-05-26T20:07:48.777Z,62.30
2018-05-26T20:10:38.304Z,62.50
2018-05-26T20:13:18.299Z,60.50
2018-05-26T20:15:49.979Z,62.40
2018-05-26T20:27:31.881Z,67.40
2018-05-26T20:30:23.068Z,64.90
2018-05-26T20:32:55.237Z,65.90
2018-05-26T20:35:29.852Z,66.60
2018-05-26T20:40:57.279Z,68.00
2018-05-26T20:43:30.643Z,69.60
2018-05-26T20:46:04.758Z,68.50
2018-05-26T20:51:45.021Z,69.70
2018-05-26T20:57:35.658Z,68.30
2018-05-26T21:00:09.602Z,67.80
2018-05-26T21:05:19.638Z,62.10
2018-05-26T21:10:39.935Z,60.90
2018-05-26T21:13:12.744Z,59.60
2018-05-26T21:21:08.102Z,63.20
2018-05-26T21:23:51.142Z,63.00
2018-05-26T21:26:22.346Z,62.80
2018-05-26T21:28:51.631Z,63.20
2018-05-26T21:31:23.058Z,63.40
2018-05-26T21:33:58.771Z,63.40
2018-05-26T21:36:33.847Z,67.00
2018-05-26T21:44:20.020Z,67.20
2018-05-26T21:46:49.174Z,67.70
2018-05-26T21:49:18.896Z,67.90
2018-05-26T21:51:50.687Z,70.90
2018-05-26T21:54:21.495Z,70.50
2018-05-26T21:56:50.772Z,70.30
2018-05-26T21:59:20.065Z,73.60
2018-05-26T22:01:58.066Z,71.70
2018-05-26T22:04:39.643Z,75.40
2018-05-26T22:07:14.720Z,75.10
2018-05-26T22:09:48.034Z,77.90
2018-05-26T22:12:24.755Z,79.30
2018-05-26T22:14:54.905Z,79.10
2018-05-26T22:17:25.896Z,80.20
2018-05-26T22:19:56.893Z,79.60
2018-05-26T22:22:37.042Z,80.30
2018-05-26T22:25:09.867Z,80.40
2018-05-26T22:27:45.728Z,81.50
2018-05-26T22:30:22.539Z,86.00
2018-05-26T22:32:56.277Z,86.20
2018-05-26T22:35:34.669Z,88.30
2018-05-26T22:38:11.145Z,90.90
2018-05-26T22:40:54.499Z,90.80
2018-05-26T22:43:25.649Z,91.80
2018-05-26T22:45:55.384Z,92.60
2018-05-26T22:48:32.550Z,93.60
2018-05-26T22:51:02.619Z,94.40
2018-05-26T22:53:34.597Z,95.80
2018-05-26T22:58:42.013Z,96.20
2018-05-26T23:01:16.277Z,97.20
2018-05-26T23:03:46.465Z,97.40
2018-05-26T23:06:17.148Z,97.50
2018-05-26T23:08:50.858Z,98.20
2018-05-26T23:14:15.977Z,98.70
2018-05-26T23:16:47.414Z,99.00
2018-05-26T23:19:23.117Z,99.90
2018-05-26T23:24:42.985Z,99.90
2018-05-26T23:27:12.318Z,99.90
2018-05-26T23:29:47.707Z,99.90
2018-05-26T23:32:23.189Z,99.90
2018-05-26T23:34:58.714Z,99.90
2018-05-26T23:37:41.453Z,99.90
2018-05-26T23:40:47.489Z,99.90
2018-05-26T23:43:19.433Z,99.90
2018-05-26T23:45:49.695Z,99.90
2018-05-26T23:48:22.321Z,99.90
2018-05-26T23:53:27.662Z,99.90
2018-05-26T23:55:59.957Z,99.90
2018-05-26T23:58:35.268Z,99.90
